To NAV CANADA Home Page Login to a new session Search on AWWS site Disclaimer Vers la page française équivalente Tips FAQ What's new on the site To the Forecasts and Observations / NOTAM section To "File a Flight Plan" website Publications and other links Update of the User's profile FIC Telephone Numbers My Weather Data Folder Route Weather Data Regional Weather Data Local Weather Data To the Forecasts and Observations / NOTAM section
Request Generated 03/19/2019 at 23:12:14 UTC . Weather information available at that time is displayed.

METAR/TAF

LONDON/ON    

METAR CYXU 192300Z 20010G15KT 15SM SCT058 SCT070 BKN250 03/M03 A3031 RMK SC3AC1CI1 SLP278=
METAR CYXU 192200Z 21011KT 15SM FEW036 BKN055 04/M03 A3031 RMK CF1SC5 CF TR CU ASOCTD SLP277=
METAR CYXU 192100Z 27007KT 15SM BKN058 05/M06 A3032 RMK SC5 CU ASOCTD SLP280=

TAF CYXU 191740Z 1918/2018 24010KT P6SM SCT050 TEMPO 1919/1922 BKN050
FM200200 21007KT P6SM FEW040
FM201500 20012KT P6SM FEW050 BKN120
RMK NXT FCST BY 200000Z=
Your time UTC time
Weather data provided by Environment Canada and NAV CANADA